Time;durP1;ratioP1;P1;durP2;ratioP2;P2;SDS_P1;SDS_P2;PMS_P1;PMS_P2;Temp;Humidity;BMP_temperature;BMP_pressure;BME280_temperature;BME280_humidity;BME280_pressure;Samples;Min_cycle;Max_cycle;Signal;HPM_P1;HPM_P2
2022/08/02 00:00:20;;;;;;;0.90;0.90;;;18.70;99.90;;;;;;5103898;28;20027;-83
2022/08/02 00:02:48;;;;;;;0.93;0.93;;;18.70;99.90;;;;;;5084472;28;20024;-83
2022/08/02 00:05:14;;;;;;;0.70;0.70;;;18.70;99.90;;;;;;5100983;28;20051;-82
2022/08/02 00:07:40;;;;;;;0.65;0.63;;;18.70;99.90;;;;;;5101287;28;20028;-83
2022/08/02 00:10:07;;;;;;;0.90;0.90;;;18.70;99.90;;;;;;5082541;28;20096;-81
2022/08/02 00:12:32;;;;;;;0.60;0.60;;;18.70;99.90;;;;;;5099721;28;20035;-81
2022/08/02 00:14:58;;;;;;;1.20;0.80;;;18.70;99.90;;;;;;5100631;28;20024;-83
2022/08/02 00:17:24;;;;;;;0.90;0.90;;;18.70;99.90;;;;;;5101858;28;20028;-81
2022/08/02 00:19:50;;;;;;;1.58;0.80;;;18.80;99.90;;;;;;5101509;28;20052;-83
2022/08/02 00:22:15;;;;;;;0.90;0.90;;;18.80;99.50;;;;;;5101717;28;20039;-81
2022/08/02 00:24:41;;;;;;;1.00;1.00;;;18.80;99.40;;;;;;5101056;28;20031;-83
2022/08/02 00:27:07;;;;;;;0.73;0.73;;;18.80;99.00;;;;;;5105626;28;20024;-80
2022/08/02 00:29:34;;;;;;;0.70;0.70;;;18.90;99.10;;;;;;5099094;28;20023;-83
2022/08/02 00:31:59;;;;;;;0.90;0.65;;;18.80;98.90;;;;;;5082271;28;20025;-84
2022/08/02 00:34:25;;;;;;;1.00;0.65;;;18.90;99.00;;;;;;5063220;28;20488;-84
2022/08/02 00:36:51;;;;;;;0.98;0.90;;;18.90;98.50;;;;;;5063967;28;20023;-83
2022/08/02 00:39:17;;;;;;;0.75;0.75;;;18.80;98.70;;;;;;5063980;28;20100;-83
2022/08/02 00:41:47;;;;;;;1.90;1.05;;;18.80;98.70;;;;;;5111570;22;20074;-83
2022/08/02 00:44:18;;;;;;;0.80;0.80;;;18.80;98.80;;;;;;5082444;28;20024;-83
2022/08/02 00:46:44;;;;;;;1.10;1.08;;;18.70;99.10;;;;;;5092144;28;20080;-83
2022/08/02 00:49:11;;;;;;;1.50;0.90;;;18.60;99.40;;;;;;5097835;28;20044;-82
2022/08/02 00:51:37;;;;;;;1.15;1.02;;;18.70;99.70;;;;;;5081912;28;20029;-81
2022/08/02 00:54:04;;;;;;;0.88;0.88;;;18.70;99.70;;;;;;5092317;28;20100;-82
2022/08/02 00:56:29;;;;;;;1.08;0.98;;;18.70;99.60;;;;;;5076023;28;20104;-82
2022/08/02 00:58:55;;;;;;;0.70;0.70;;;18.80;99.50;;;;;;5075503;28;20059;-82
2022/08/02 01:01:37;;;;;;;1.65;0.80;;;18.80;99.50;;;;;;5073938;28;20101;-82
2022/08/02 01:04:13;;;;;;;2.45;0.90;;;18.80;99.50;;;;;;5066277;28;20070;-82
2022/08/02 01:06:41;;;;;;;2.08;0.70;;;18.80;99.50;;;;;;5063398;28;20045;-82
2022/08/02 01:09:07;;;;;;;1.08;0.88;;;18.80;99.30;;;;;;5064952;28;20016;-82
2022/08/02 01:11:34;;;;;;;1.05;0.80;;;18.70;99.50;;;;;;5072535;28;20354;-82
2022/08/02 01:14:11;;;;;;;1.65;0.80;;;18.70;99.70;;;;;;5071917;28;20021;-82
2022/08/02 01:16:47;;;;;;;0.90;0.80;;;18.70;99.90;;;;;;5073845;28;20059;-82
2022/08/02 01:19:31;;;;;;;0.80;0.80;;;18.70;99.90;;;;;;5074063;28;20040;-83
2022/08/02 01:22:18;;;;;;;0.77;0.77;;;18.60;99.90;;;;;;5072894;28;20029;-82
2022/08/02 01:25:13;;;;;;;0.88;0.80;;;18.60;99.90;;;;;;5074317;28;20036;-81
2022/08/02 01:27:48;;;;;;;1.50;1.00;;;18.50;99.90;;;;;;5074483;28;20025;-82
2022/08/02 01:30:16;;;;;;;1.42;1.10;;;18.50;99.90;;;;;;5072369;28;20032;-83
2022/08/02 01:32:47;;;;;;;1.30;1.00;;;18.50;99.90;;;;;;5071750;28;20036;-82
2022/08/02 01:35:19;;;;;;;1.17;1.08;;;18.50;99.90;;;;;;5073686;28;20024;-81
2022/08/02 01:38:00;;;;;;;1.48;1.20;;;18.50;99.90;;;;;;5074340;28;20175;-82
2022/08/02 01:40:32;;;;;;;1.25;1.15;;;18.40;99.90;;;;;;5071760;28;20037;-82
2022/08/02 01:42:59;;;;;;;1.30;1.30;;;18.30;99.90;;;;;;5073566;28;20073;-81
2022/08/02 01:45:33;;;;;;;1.50;1.20;;;18.30;99.90;;;;;;5070332;28;20025;-84
2022/08/02 01:48:00;;;;;;;1.02;1.00;;;18.20;99.90;;;;;;5066683;28;20121;-84
2022/08/02 01:50:31;;;;;;;3.42;1.17;;;18.20;99.90;;;;;;5066903;28;20021;-84
2022/08/02 01:53:01;;;;;;;3.88;1.35;;;18.10;99.90;;;;;;5067709;28;20029;-83
2022/08/02 01:55:34;;;;;;;1.23;1.17;;;18.10;99.90;;;;;;5072292;28;20048;-83
2022/08/02 01:58:03;;;;;;;0.95;0.95;;;18.00;99.90;;;;;;5068284;28;20013;-82
2022/08/02 02:00:32;;;;;;;1.40;1.30;;;18.00;99.90;;;;;;5070810;28;20051;-82
2022/08/02 02:02:59;;;;;;;1.30;1.20;;;17.90;99.90;;;;;;5066641;28;20032;-83
2022/08/02 02:05:28;;;;;;;1.52;1.42;;;17.90;99.90;;;;;;5061152;28;20024;-82
2022/08/02 02:07:57;;;;;;;1.42;1.25;;;17.90;99.90;;;;;;5060524;28;20149;-82
2022/08/02 02:10:34;;;;;;;1.40;1.30;;;17.90;99.90;;;;;;5059692;28;20074;-83
2022/08/02 02:13:06;;;;;;;2.40;1.40;;;17.90;99.90;;;;;;5053711;28;20039;-83
2022/08/02 02:15:34;;;;;;;1.90;1.52;;;17.90;99.90;;;;;;5060927;28;20386;-83
2022/08/02 02:18:00;;;;;;;1.10;1.10;;;17.90;99.90;;;;;;5061153;28;20075;-85
2022/08/02 02:20:26;;;;;;;1.90;1.50;;;17.90;99.90;;;;;;5060678;28;20054;-82
2022/08/02 02:22:52;;;;;;;1.83;1.73;;;18.00;99.90;;;;;;5061561;28;20017;-83
2022/08/02 02:25:21;;;;;;;1.55;1.27;;;18.00;99.90;;;;;;5061796;28;20420;-84
2022/08/02 02:28:32;;;;;;;1.20;1.15;;;18.00;99.90;;;;;;5063981;28;20040;-83
2022/08/02 02:31:06;;;;;;;1.55;1.33;;;18.00;99.90;;;;;;5063864;28;20090;-84
2022/08/02 02:33:35;;;;;;;2.35;1.27;;;18.00;99.90;;;;;;5063815;28;20099;-83
2022/08/02 02:36:02;;;;;;;1.48;1.38;;;18.10;99.90;;;;;;5064465;28;20407;-84
2022/08/02 02:38:31;;;;;;;1.90;1.42;;;18.00;99.90;;;;;;5063415;28;20029;-84
2022/08/02 02:41:01;;;;;;;1.45;1.35;;;18.10;99.90;;;;;;5062322;28;20041;-84
2022/08/02 02:43:29;;;;;;;1.85;1.38;;;18.20;99.90;;;;;;5062355;28;20025;-83
2022/08/02 02:45:56;;;;;;;1.40;1.20;;;18.20;99.90;;;;;;5063290;28;20093;-83
2022/08/02 02:48:23;;;;;;;2.30;1.60;;;18.20;99.90;;;;;;5061824;28;20327;-84
2022/08/02 02:50:50;;;;;;;1.60;1.50;;;18.20;99.90;;;;;;5062555;28;20077;-83
2022/08/02 02:53:18;;;;;;;1.23;1.10;;;18.20;99.90;;;;;;5065535;28;20500;-82
2022/08/02 02:55:45;;;;;;;1.48;1.33;;;18.20;99.90;;;;;;5075281;28;20017;-81
2022/08/02 02:58:12;;;;;;;1.50;1.30;;;18.20;99.90;;;;;;5075343;28;20052;-80
2022/08/02 03:03:24;;;;;;;2.45;1.60;;;18.20;99.90;;;;;;5075028;28;20036;-81
2022/08/02 03:05:50;;;;;;;2.83;1.40;;;18.20;99.90;;;;;;5075624;28;20044;-80
2022/08/02 03:08:16;;;;;;;1.50;1.40;;;18.20;99.90;;;;;;5076196;28;20025;-81
2022/08/02 03:10:43;;;;;;;2.03;1.73;;;18.10;99.90;;;;;;5075681;28;20067;-81
2022/08/02 03:13:10;;;;;;;1.52;1.42;;;18.20;99.90;;;;;;5075738;28;20025;-81
2022/08/02 03:15:37;;;;;;;1.25;1.20;;;18.20;99.90;;;;;;5075447;28;20025;-83
2022/08/02 03:18:02;;;;;;;2.45;1.90;;;18.10;99.90;;;;;;5064572;28;20066;-84
2022/08/02 03:20:28;;;;;;;1.42;1.33;;;18.10;99.90;;;;;;5061520;28;20111;-84
2022/08/02 03:22:54;;;;;;;1.33;1.20;;;18.00;99.90;;;;;;5061944;28;20032;-83
2022/08/02 03:25:19;;;;;;;1.30;1.20;;;18.00;99.90;;;;;;5062780;28;20454;-83
2022/08/02 03:27:45;;;;;;;2.15;1.77;;;17.90;99.90;;;;;;5062982;28;20025;-84
2022/08/02 03:30:13;;;;;;;1.77;1.52;;;17.90;99.90;;;;;;5062907;28;20021;-85
2022/08/02 03:32:42;;;;;;;3.40;1.40;;;17.90;99.90;;;;;;5078588;28;20021;-84
2022/08/02 03:35:10;;;;;;;2.67;1.88;;;17.90;99.90;;;;;;5043642;28;20053;-85
2022/08/02 03:37:37;;;;;;;1.48;1.38;;;17.80;99.90;;;;;;5064562;28;20041;-86
2022/08/02 03:40:06;;;;;;;1.65;1.55;;;17.80;99.90;;;;;;5070022;28;20029;-84
2022/08/02 03:42:32;;;;;;;1.85;1.75;;;17.80;99.90;;;;;;5096084;28;20067;-82
2022/08/02 03:45:00;;;;;;;1.70;1.60;;;17.80;99.90;;;;;;5079479;28;20025;-84
2022/08/02 03:47:27;;;;;;;2.67;1.80;;;17.90;99.90;;;;;;5080222;28;20020;-83
2022/08/02 03:49:54;;;;;;;2.13;1.92;;;17.80;99.90;;;;;;5080355;28;20027;-84
2022/08/02 03:52:22;;;;;;;1.75;1.60;;;17.70;99.90;;;;;;5086105;28;20021;-82
2022/08/02 03:54:47;;;;;;;1.55;1.45;;;17.70;99.90;;;;;;5091999;28;20023;-82
2022/08/02 03:57:14;;;;;;;1.75;1.65;;;17.80;99.90;;;;;;5092642;28;20017;-92
2022/08/02 03:59:41;;;;;;;1.63;1.48;;;17.70;99.90;;;;;;5095312;28;20020;-91
2022/08/02 04:02:07;;;;;;;2.55;1.52;;;17.80;99.90;;;;;;5096155;28;20029;-91
2022/08/02 04:04:33;;;;;;;1.30;1.20;;;17.80;99.90;;;;;;5095955;28;20028;-91
2022/08/02 04:06:59;;;;;;;1.35;1.25;;;17.80;99.90;;;;;;5095111;28;20035;-90
2022/08/02 04:09:25;;;;;;;2.10;1.52;;;17.90;99.90;;;;;;5095910;28;20013;-88
2022/08/02 04:11:51;;;;;;;1.55;1.40;;;17.90;99.90;;;;;;5094913;28;20021;-91
2022/08/02 04:14:16;;;;;;;2.00;1.60;;;17.90;99.90;;;;;;5086710;28;20064;-86
2022/08/02 04:16:44;;;;;;;3.25;1.50;;;17.90;99.90;;;;;;5078912;28;20021;-86
2022/08/02 04:19:26;;;;;;;1.75;1.65;;;17.90;99.90;;;;;;5074213;28;20025;-84
2022/08/02 04:21:54;;;;;;;2.83;1.50;;;17.90;99.90;;;;;;5062078;28;20115;-84
2022/08/02 04:24:27;;;;;;;2.60;1.60;;;17.90;99.90;;;;;;5059365;28;20025;-82
2022/08/02 04:26:55;;;;;;;2.25;1.88;;;17.90;99.90;;;;;;5059481;28;20036;-83
2022/08/02 04:29:22;;;;;;;2.90;1.60;;;17.90;99.90;;;;;;5059456;28;20082;-82
2022/08/02 04:31:48;;;;;;;1.80;1.70;;;18.00;99.90;;;;;;5059424;28;20481;-82
2022/08/02 04:34:15;;;;;;;2.63;2.00;;;18.00;99.90;;;;;;5058802;28;20032;-85
2022/08/02 04:36:40;;;;;;;1.73;1.63;;;18.10;99.90;;;;;;5058203;28;20048;-84
2022/08/02 04:39:06;;;;;;;1.67;1.58;;;18.20;99.90;;;;;;5058389;28;20048;-83
2022/08/02 04:41:42;;;;;;;1.63;1.52;;;18.20;99.90;;;;;;5058682;28;20354;-85
2022/08/02 04:44:08;;;;;;;2.75;1.85;;;18.20;99.90;;;;;;5058094;28;20140;-84
2022/08/02 04:46:35;;;;;;;2.03;1.67;;;18.20;99.90;;;;;;5056512;28;20029;-83
2022/08/02 04:49:02;;;;;;;3.05;1.73;;;18.10;99.90;;;;;;5059460;28;20028;-82
2022/08/02 04:51:27;;;;;;;3.30;2.15;;;18.20;99.90;;;;;;5057709;28;20021;-81
2022/08/02 04:53:53;;;;;;;2.58;2.20;;;18.20;99.90;;;;;;5057907;28;20084;-84
2022/08/02 04:56:19;;;;;;;2.00;1.85;;;18.20;99.90;;;;;;5060330;28;20080;-80
2022/08/02 04:58:45;;;;;;;2.17;1.98;;;18.30;99.90;;;;;;5059418;28;20036;-81
2022/08/02 05:01:10;;;;;;;1.83;1.73;;;18.30;99.90;;;;;;5059205;28;20430;-79
2022/08/02 05:03:36;;;;;;;1.50;1.40;;;18.40;99.90;;;;;;5057587;28;20040;-78
2022/08/02 05:06:02;;;;;;;1.50;1.40;;;18.50;99.90;;;;;;5058032;28;20029;-78
2022/08/02 05:08:28;;;;;;;1.60;1.50;;;18.50;99.90;;;;;;5055161;28;20123;-79
2022/08/02 05:10:54;;;;;;;1.73;1.60;;;18.60;99.90;;;;;;5057685;28;20025;-78
2022/08/02 05:13:19;;;;;;;2.88;1.65;;;18.70;99.90;;;;;;5057946;28;20022;-78
2022/08/02 05:15:49;;;;;;;1.27;1.17;;;18.80;99.90;;;;;;5056243;28;20028;-78
2022/08/02 05:18:15;;;;;;;1.33;1.20;;;18.90;99.90;;;;;;5056404;28;20432;-77
2022/08/02 05:20:41;;;;;;;1.48;1.38;;;19.00;99.90;;;;;;5056121;28;20036;-78
2022/08/02 05:23:06;;;;;;;1.63;1.50;;;19.00;99.90;;;;;;5055750;28;20020;-77
2022/08/02 05:25:32;;;;;;;1.50;1.40;;;19.10;99.90;;;;;;5071815;28;20087;-77
2022/08/02 05:27:58;;;;;;;1.70;1.60;;;19.00;99.90;;;;;;5054669;28;20417;-78
2022/08/02 05:30:23;;;;;;;1.50;1.40;;;19.00;99.90;;;;;;5072067;28;20092;-78
2022/08/02 05:32:53;;;;;;;1.80;1.67;;;19.00;99.90;;;;;;5055624;28;20338;-78
2022/08/02 05:35:20;;;;;;;1.85;1.40;;;19.00;99.90;;;;;;5055534;28;20029;-78
2022/08/02 05:37:47;;;;;;;1.67;1.58;;;19.20;99.90;;;;;;5055839;28;20040;-78
2022/08/02 05:40:13;;;;;;;1.52;1.42;;;19.80;99.90;;;;;;5055117;28;20473;-79
2022/08/02 05:42:40;;;;;;;1.20;1.20;;;20.10;99.90;;;;;;5056495;28;20029;-78
2022/08/02 05:45:07;;;;;;;2.03;1.67;;;20.20;99.20;;;;;;5059471;28;20025;-78
2022/08/02 05:47:32;;;;;;;1.45;1.35;;;20.40;98.60;;;;;;5060133;28;20024;-80
2022/08/02 05:49:58;;;;;;;1.90;1.80;;;20.50;98.00;;;;;;5059761;28;20021;-78
2022/08/02 05:52:26;;;;;;;2.13;1.33;;;20.60;97.20;;;;;;5059933;28;20108;-79
2022/08/02 05:55:12;;;;;;;1.75;1.40;;;20.60;96.30;;;;;;5060254;28;20044;-79
2022/08/02 05:58:16;;;;;;;2.05;1.52;;;20.50;95.90;;;;;;5057562;28;20033;-80
2022/08/02 06:00:44;;;;;;;1.88;1.58;;;20.50;95.70;;;;;;5060266;28;20079;-79
2022/08/02 06:03:16;;;;;;;1.25;1.20;;;20.60;95.40;;;;;;5075981;28;20060;-80
2022/08/02 06:05:59;;;;;;;2.50;1.20;;;22.20;94.30;;;;;;5060000;28;20064;-78
2022/08/02 06:08:36;;;;;;;1.23;1.10;;;26.30;81.80;;;;;;5059256;28;20029;-80
2022/08/02 06:11:05;;;;;;;2.67;1.00;;;29.70;65.60;;;;;;5060084;28;20021;-79
2022/08/02 06:13:32;;;;;;;0.95;0.90;;;31.80;57.50;;;;;;5063291;28;20055;-81
2022/08/02 06:15:59;;;;;;;1.05;0.90;;;;;;;;;;5063774;28;20086;-81
2022/08/02 06:18:30;;;;;;;1.25;1.10;;;30.90;55.20;;;;;;5062655;28;20089;-79
2022/08/02 06:20:59;;;;;;;1.20;1.20;;;32.00;54.40;;;;;;5061038;28;20024;-81
2022/08/02 06:23:26;;;;;;;1.00;1.00;;;31.20;52.30;;;;;;5053444;28;20047;-79
2022/08/02 06:25:53;;;;;;;1.13;1.13;;;28.70;55.20;;;;;;5056704;28;20017;-80
2022/08/02 06:28:19;;;;;;;0.90;0.90;;;26.50;59.90;;;;;;5057808;28;20032;-78
2022/08/02 06:30:45;;;;;;;1.08;1.08;;;24.80;64.90;;;;;;5057905;28;20023;-79
2022/08/02 06:33:12;;;;;;;1.42;1.30;;;23.50;69.40;;;;;;5059378;28;20486;-80
2022/08/02 06:36:17;;;;;;;2.47;1.25;;;;;;;;;;5061456;28;20020;-79
2022/08/02 06:38:52;;;;;;;3.25;1.48;;;26.10;70.30;;;;;;5024373;28;20106;-75
2022/08/02 06:41:18;;;;;;;1.05;1.00;;;29.30;62.70;;;;;;5042093;28;20017;-77
2022/08/02 06:44:00;;;;;;;1.05;1.05;;;31.30;56.60;;;;;;5072542;28;20084;-78
2022/08/02 06:46:27;;;;;;;1.13;0.95;;;31.90;53.20;;;;;;5068679;28;20040;-79
2022/08/02 06:48:53;;;;;;;2.22;1.10;;;31.50;53.10;;;;;;5068126;28;20044;-79
2022/08/02 06:51:19;;;;;;;1.25;1.05;;;31.70;52.20;;;;;;5070415;28;20025;-77
2022/08/02 06:53:45;;;;;;;1.08;1.08;;;31.30;51.90;;;;;;5084618;28;20021;-79
2022/08/02 06:56:11;;;;;;;1.80;1.70;;;31.40;52.30;;;;;;5070429;28;20032;-77
2022/08/02 06:58:37;;;;;;;1.67;1.58;;;31.10;52.10;;;;;;5068809;28;20033;-78
2022/08/02 07:01:06;;;;;;;2.13;1.45;;;29.60;53.20;;;;;;5068128;28;20036;-78
2022/08/02 07:03:36;;;;;;;1.30;1.20;;;27.80;57.20;;;;;;5069267;28;20016;-78
2022/08/02 07:06:03;;;;;;;2.05;1.27;;;27.40;61.40;;;;;;5068895;28;20024;-78
2022/08/02 07:08:32;;;;;;;1.40;1.10;;;29.20;58.30;;;;;;5066820;28;20013;-77
2022/08/02 07:11:00;;;;;;;1.90;1.50;;;30.40;55.30;;;;;;5063728;28;20021;-76
2022/08/02 07:13:26;;;;;;;1.40;1.13;;;30.40;54.40;;;;;;5058498;28;20041;-77
2022/08/02 07:15:52;;;;;;;1.50;1.40;;;29.60;53.90;;;;;;5062178;28;20025;-77
2022/08/02 07:18:18;;;;;;;1.10;1.00;;;28.30;56.10;;;;;;5058551;28;20063;-77
2022/08/02 07:20:45;;;;;;;1.00;0.95;;;26.90;58.70;;;;;;5061405;28;20035;-76
2022/08/02 07:23:10;;;;;;;2.45;1.58;;;25.80;61.60;;;;;;5074513;28;20029;-78
2022/08/02 07:25:36;;;;;;;1.67;1.58;;;24.90;64.60;;;;;;5058833;28;20091;-78
2022/08/02 07:28:03;;;;;;;2.85;1.50;;;24.20;67.10;;;;;;5057386;28;20021;-75
2022/08/02 07:30:30;;;;;;;2.42;1.02;;;23.60;68.80;;;;;;5060419;28;20099;-77
2022/08/02 07:32:56;;;;;;;1.42;1.27;;;23.20;70.80;;;;;;5055584;28;20025;-77
2022/08/02 07:35:22;;;;;;;2.28;1.33;;;23.20;72.50;;;;;;5056194;28;20457;-77
2022/08/02 07:37:48;;;;;;;1.40;1.30;;;23.20;73.20;;;;;;5055503;28;20075;-77
2022/08/02 07:40:15;;;;;;;1.20;1.10;;;23.10;73.20;;;;;;5056539;28;20076;-76
2022/08/02 07:42:44;;;;;;;1.23;1.13;;;23.20;73.80;;;;;;5056226;28;20465;-76
2022/08/02 07:45:11;;;;;;;1.50;1.40;;;23.20;73.70;;;;;;5056118;28;20040;-77
2022/08/02 07:47:38;;;;;;;4.28;1.52;;;23.30;73.60;;;;;;5059466;28;20086;-75
2022/08/02 07:50:05;;;;;;;2.40;1.40;;;23.30;73.90;;;;;;5057537;28;20020;-77
2022/08/02 07:52:33;;;;;;;3.50;1.58;;;23.20;73.20;;;;;;5055401;28;20040;-76
2022/08/02 07:54:58;;;;;;;1.63;1.48;;;23.20;73.40;;;;;;5073193;28;20017;-76
2022/08/02 07:57:24;;;;;;;1.17;1.15;;;23.10;73.00;;;;;;5078547;28;20017;-76
2022/08/02 07:59:50;;;;;;;2.15;1.45;;;23.00;74.10;;;;;;5078933;28;20036;-75
2022/08/02 08:02:17;;;;;;;3.60;1.48;;;23.10;74.60;;;;;;5079107;28;20136;-75
2022/08/02 08:04:42;;;;;;;3.97;1.50;;;23.20;73.90;;;;;;5077486;28;20040;-75
2022/08/02 08:07:10;;;;;;;1.10;1.10;;;23.20;74.10;;;;;;5078107;28;20041;-75
2022/08/02 08:09:44;;;;;;;1.55;1.23;;;23.30;73.90;;;;;;5077794;28;20076;-77
2022/08/02 08:12:10;;;;;;;1.73;1.00;;;23.40;73.10;;;;;;5078490;28;20093;-76
2022/08/02 08:14:37;;;;;;;1.23;1.13;;;23.30;72.10;;;;;;5076514;28;20081;-75
2022/08/02 08:17:04;;;;;;;2.97;1.50;;;23.40;72.50;;;;;;5067140;28;20078;-78
2022/08/02 08:19:30;;;;;;;1.70;1.17;;;23.50;71.70;;;;;;5065605;28;20017;-76
2022/08/02 08:21:59;;;;;;;1.92;1.35;;;23.60;71.80;;;;;;5066891;28;20377;-78
2022/08/02 08:24:25;;;;;;;1.20;1.08;;;23.80;70.20;;;;;;5075419;28;20578;-79
2022/08/02 08:26:51;;;;;;;1.40;1.20;;;23.80;70.10;;;;;;5062326;28;20029;-79
2022/08/02 08:29:17;;;;;;;7.00;1.77;;;23.90;69.50;;;;;;5061907;28;20409;-79
2022/08/02 08:31:42;;;;;;;1.45;1.35;;;24.00;69.50;;;;;;5059434;28;20029;-78
2022/08/02 08:34:09;;;;;;;1.73;1.45;;;24.10;69.80;;;;;;5057396;28;20025;-77
2022/08/02 08:36:34;;;;;;;1.40;1.17;;;24.20;69.90;;;;;;5041842;28;20051;-80
2022/08/02 08:39:00;;;;;;;1.33;1.10;;;;;;;;;;5054356;28;20089;-80
2022/08/02 08:41:26;;;;;;;2.03;1.85;;;24.40;68.80;;;;;;5062049;28;20052;-81
2022/08/02 08:43:52;;;;;;;1.23;1.05;;;24.60;67.60;;;;;;5061431;28;20036;-82
2022/08/02 08:46:29;;;;;;;2.47;1.00;;;24.80;67.20;;;;;;5067915;28;20422;-82
2022/08/02 08:49:18;;;;;;;1.08;0.90;;;25.00;66.90;;;;;;5073954;28;20043;-81
2022/08/02 08:51:43;;;;;;;1.63;1.00;;;25.10;66.00;;;;;;5074489;28;20089;-83
2022/08/02 08:54:14;;;;;;;2.38;1.20;;;25.20;64.20;;;;;;5074138;28;20024;-83
2022/08/02 08:56:40;;;;;;;1.35;1.10;;;25.30;64.10;;;;;;5072443;28;20040;-81
2022/08/02 08:59:07;;;;;;;1.58;1.48;;;25.40;63.70;;;;;;5069513;28;20086;-82
2022/08/02 09:01:34;;;;;;;1.65;1.13;;;25.50;63.60;;;;;;5068263;28;20028;-83
2022/08/02 09:04:00;;;;;;;1.23;1.10;;;25.40;63.10;;;;;;5068881;28;20059;-83
2022/08/02 09:06:25;;;;;;;1.27;1.25;;;25.40;63.20;;;;;;5069044;28;20096;-82
2022/08/02 09:08:52;;;;;;;1.30;1.13;;;25.30;63.00;;;;;;5070192;28;20021;-82
2022/08/02 09:11:22;;;;;;;2.35;1.38;;;25.30;62.30;;;;;;5069160;28;20088;-82
2022/08/02 09:13:53;;;;;;;2.25;1.50;;;25.20;62.80;;;;;;5064946;28;20153;-81
2022/08/02 09:16:30;;;;;;;;;;;25.40;62.90;;;;;;5066267;28;20430;-82
2022/08/02 09:18:56;;;;;;;2.00;1.30;;;25.30;62.60;;;;;;5064536;28;19909;-82
2022/08/02 09:21:22;;;;;;;2.22;1.58;;;25.50;62.40;;;;;;5063116;28;20025;-83
2022/08/02 09:23:50;;;;;;;2.55;1.40;;;25.80;62.20;;;;;;5058987;28;20025;-82
2022/08/02 09:26:21;;;;;;;1.27;1.17;;;25.90;61.90;;;;;;5064941;28;20025;-81
2022/08/02 09:28:49;;;;;;;1.42;1.33;;;25.80;61.70;;;;;;5070118;28;20104;-80
2022/08/02 09:31:18;;;;;;;1.38;1.27;;;25.70;62.50;;;;;;5063858;28;20028;-81
2022/08/02 09:33:49;;;;;;;1.40;1.30;;;25.80;62.00;;;;;;5065096;28;20036;-83
2022/08/02 09:36:15;;;;;;;2.03;1.33;;;25.80;61.50;;;;;;5070673;28;20087;-82
2022/08/02 09:39:05;;;;;;;1.65;1.33;;;26.00;61.80;;;;;;5063626;28;20033;-82
2022/08/02 09:41:34;;;;;;;1.45;1.00;;;26.00;61.10;;;;;;5061948;28;20151;-82
2022/08/02 09:44:02;;;;;;;1.35;0.90;;;26.20;59.70;;;;;;5060414;28;20103;-83
2022/08/02 09:46:29;;;;;;;1.10;0.98;;;26.20;59.40;;;;;;5062831;28;20059;-80
2022/08/02 09:48:56;;;;;;;1.13;1.00;;;26.20;58.80;;;;;;5061750;28;20021;-82
2022/08/02 09:51:30;;;;;;;1.52;1.30;;;26.20;59.50;;;;;;5061907;28;20029;-82
2022/08/02 09:53:59;;;;;;;2.03;1.05;;;26.50;59.50;;;;;;5062337;28;20088;-81
2022/08/02 09:56:26;;;;;;;1.70;1.23;;;26.60;59.20;;;;;;5062876;28;20055;-82
2022/08/02 09:58:55;;;;;;;1.08;1.05;;;26.80;58.00;;;;;;5064336;28;20032;-82
2022/08/02 10:01:33;;;;;;;1.13;1.10;;;26.90;58.40;;;;;;5064202;28;20505;-81
2022/08/02 10:04:04;;;;;;;1.88;1.65;;;27.20;58.50;;;;;;5063319;28;20044;-82
2022/08/02 10:06:32;;;;;;;0.95;0.95;;;27.30;58.40;;;;;;5067928;28;20457;-81
2022/08/02 10:08:58;;;;;;;1.85;1.67;;;27.50;58.60;;;;;;5082373;28;20035;-81
2022/08/02 10:11:27;;;;;;;1.98;1.55;;;27.80;57.30;;;;;;5074120;28;20036;-79
2022/08/02 10:13:53;;;;;;;1.58;1.48;;;28.00;57.60;;;;;;5060499;28;20017;-79
2022/08/02 10:16:22;;;;;;;1.55;1.42;;;28.20;56.40;;;;;;5064375;28;20029;-79
2022/08/02 10:18:53;;;;;;;1.52;1.30;;;28.30;55.30;;;;;;5066661;28;20057;-81
2022/08/02 10:21:47;;;;;;;1.20;1.10;;;28.20;55.60;;;;;;5079174;28;20021;-81
2022/08/02 10:24:27;;;;;;;2.13;1.30;;;28.10;55.50;;;;;;5065213;28;20044;-83
2022/08/02 10:26:54;;;;;;;1.17;1.08;;;27.90;55.20;;;;;;5067620;28;20043;-88
2022/08/02 10:29:26;;;;;;;0.98;0.93;;;27.80;55.70;;;;;;5069536;28;20021;-83
2022/08/02 10:31:53;;;;;;;1.10;1.10;;;27.40;57.00;;;;;;5067758;28;20021;-81
2022/08/02 10:34:23;;;;;;;1.20;1.20;;;27.30;58.00;;;;;;5070105;28;20051;-81
2022/08/02 10:36:50;;;;;;;1.88;1.23;;;27.30;57.40;;;;;;5062949;28;20082;-82
2022/08/02 10:39:15;;;;;;;2.33;1.20;;;27.20;58.40;;;;;;5061252;28;20390;-81
2022/08/02 10:41:50;;;;;;;3.28;1.70;;;27.20;58.30;;;;;;5059812;28;20044;-78
2022/08/02 10:44:31;;;;;;;1.25;1.25;;;27.00;58.30;;;;;;5058392;28;20025;-83
2022/08/02 10:47:18;;;;;;;1.80;1.70;;;26.50;59.40;;;;;;5058487;28;20547;-81
2022/08/02 10:49:51;;;;;;;2.33;1.10;;;26.20;60.50;;;;;;5058160;28;20039;-81
2022/08/02 10:52:18;;;;;;;1.35;1.30;;;26.10;61.50;;;;;;5057137;28;20029;-83
2022/08/02 10:54:53;;;;;;;1.48;0.80;;;26.20;61.00;;;;;;5057700;28;20386;-81
2022/08/02 10:57:24;;;;;;;1.45;1.25;;;26.40;61.10;;;;;;5059593;28;20401;-81
2022/08/02 10:59:54;;;;;;;;;;;26.60;60.10;;;;;;5059194;28;20074;-82
2022/08/02 11:02:34;;;;;;;1.10;1.10;;;26.80;59.10;;;;;;5057323;28;19987;-80
2022/08/02 11:05:08;;;;;;;1.55;1.45;;;27.20;57.00;;;;;;5073751;28;20025;-83
2022/08/02 11:07:40;;;;;;;2.70;1.33;;;27.30;57.30;;;;;;5056351;28;20021;-82
2022/08/02 11:10:24;;;;;;;2.05;1.17;;;27.50;57.40;;;;;;5057079;28;20028;-82
2022/08/02 11:13:00;;;;;;;1.13;1.13;;;28.20;56.90;;;;;;5035520;28;20041;-80
2022/08/02 11:15:26;;;;;;;1.02;1.02;;;28.80;54.90;;;;;;5039355;28;20039;-80
2022/08/02 11:17:58;;;;;;;1.45;1.15;;;29.10;53.70;;;;;;5056025;28;20031;-81
2022/08/02 11:20:25;;;;;;;1.17;1.08;;;29.50;53.10;;;;;;5054081;28;20021;-81
2022/08/02 11:22:53;;;;;;;2.78;1.15;;;29.80;52.30;;;;;;5055323;28;20068;-80
2022/08/02 11:25:22;;;;;;;1.30;1.20;;;30.00;51.40;;;;;;5055247;28;20029;-79
2022/08/02 11:27:55;;;;;;;1.20;1.10;;;30.00;51.30;;;;;;5059083;28;20017;-82
2022/08/02 11:30:21;;;;;;;1.92;1.02;;;29.80;52.10;;;;;;5060971;28;20029;-80
2022/08/02 11:32:48;;;;;;;1.40;1.30;;;29.60;52.50;;;;;;5059735;28;20021;-81
2022/08/02 11:35:14;;;;;;;2.47;1.75;;;29.30;52.40;;;;;;5074340;28;20033;-81
2022/08/02 11:37:42;;;;;;;1.20;1.10;;;28.50;53.70;;;;;;5059696;28;20025;-82
2022/08/02 11:40:12;;;;;;;1.30;1.20;;;28.00;54.00;;;;;;5062919;28;20020;-85
2022/08/02 11:42:40;;;;;;;1.30;1.00;;;27.60;56.10;;;;;;5088172;28;20040;-80
2022/08/02 11:45:08;;;;;;;2.80;1.38;;;27.30;56.10;;;;;;5061135;28;20020;-80
2022/08/02 11:47:50;;;;;;;1.30;1.20;;;26.90;57.10;;;;;;5060917;28;20088;-81
2022/08/02 11:50:19;;;;;;;0.85;0.85;;;26.60;57.10;;;;;;5060311;28;20060;-80
2022/08/02 11:52:45;;;;;;;0.82;0.82;;;26.90;56.90;;;;;;5075590;28;20020;-82
2022/08/02 11:55:12;;;;;;;1.48;1.38;;;27.40;56.40;;;;;;5060513;28;20029;-81
2022/08/02 11:57:39;;;;;;;2.15;1.33;;;28.20;54.10;;;;;;5058766;28;20031;-82
2022/08/02 12:00:16;;;;;;;1.08;1.02;;;28.20;53.80;;;;;;5059667;28;20025;-82
2022/08/02 12:02:47;;;;;;;1.40;1.40;;;28.00;53.80;;;;;;5060296;28;20025;-80
2022/08/02 12:05:20;;;;;;;2.63;1.20;;;28.10;54.70;;;;;;5059656;28;20025;-82
2022/08/02 12:07:49;;;;;;;1.00;1.00;;;28.50;53.80;;;;;;5061083;28;20083;-81
2022/08/02 12:10:18;;;;;;;0.90;0.90;;;28.90;51.70;;;;;;5060439;28;20028;-81
2022/08/02 12:12:51;;;;;;;0.90;0.90;;;28.60;52.10;;;;;;5067837;28;20025;-84
2022/08/02 12:15:36;;;;;;;1.33;1.23;;;28.00;53.00;;;;;;5069099;28;20033;-84
2022/08/02 12:20:47;;;;;;;0.93;0.93;;;27.90;53.40;;;;;;5073459;28;20036;-81
2022/08/02 12:23:13;;;;;;;0.90;0.90;;;27.70;54.20;;;;;;5077259;28;20032;-84
2022/08/02 12:25:39;;;;;;;1.00;1.00;;;27.60;55.60;;;;;;5073812;28;20029;-80
2022/08/02 12:28:24;;;;;;;5.18;1.27;;;27.50;55.00;;;;;;5072873;28;20047;-82
2022/08/02 12:30:57;;;;;;;2.67;1.00;;;27.90;54.90;;;;;;5070822;28;20029;-81
2022/08/02 12:33:26;;;;;;;1.33;1.00;;;28.50;52.40;;;;;;5078314;28;20039;-80
2022/08/02 12:35:52;;;;;;;3.05;1.40;;;29.20;51.20;;;;;;5063154;28;20025;-80
2022/08/02 12:38:18;;;;;;;1.45;1.35;;;29.80;50.20;;;;;;5061954;28;20025;-82
2022/08/02 12:40:45;;;;;;;2.13;1.02;;;29.90;49.70;;;;;;5060333;28;20024;-80
2022/08/02 12:43:23;;;;;;;1.30;1.08;;;30.00;49.60;;;;;;5056219;28;20036;-82
2022/08/02 12:45:52;;;;;;;0.73;0.73;;;30.00;48.90;;;;;;5056770;28;20035;-81
2022/08/02 12:48:39;;;;;;;2.35;1.13;;;30.00;50.00;;;;;;5057993;28;20059;-83
2022/08/02 12:51:35;;;;;;;2.90;1.02;;;30.40;49.60;;;;;;5057683;28;20021;-80
2022/08/02 12:54:17;;;;;;;0.80;0.80;;;30.40;48.90;;;;;;5056227;28;20022;-81
2022/08/02 12:56:44;;;;;;;0.90;0.90;;;30.50;48.50;;;;;;5060010;28;20032;-80
2022/08/02 12:59:10;;;;;;;2.05;0.98;;;30.80;48.70;;;;;;5064935;28;20161;-81
2022/08/02 13:01:36;;;;;;;1.33;1.27;;;30.90;47.80;;;;;;5080571;28;20052;-82
2022/08/02 13:04:03;;;;;;;1.05;1.00;;;30.80;48.30;;;;;;5060030;28;20021;-82